Time;durP1;ratioP1;P1;durP2;ratioP2;P2;SDS_P1;SDS_P2;PMS_P1;PMS_P2;Temp;Humidity;BMP_temperature;BMP_pressure;BME280_temperature;BME280_humidity;BME280_pressure;Samples;Min_cycle;Max_cycle;Signal;HPM_P1;HPM_P2
2022/04/06 00:00:48;;;;;;;7.60;6.50;;;9.60;99.90;;;;;;4974441;28;21080;-82
2022/04/06 00:03:14;;;;;;;7.90;5.97;;;9.60;99.90;;;;;;4977084;28;20270;-82
2022/04/06 00:05:40;;;;;;;7.53;6.17;;;9.60;99.90;;;;;;4986767;28;20192;-79
2022/04/06 00:08:06;;;;;;;6.67;5.47;;;9.60;99.90;;;;;;4999236;28;20194;-81
2022/04/06 00:10:31;;;;;;;8.63;6.80;;;9.70;99.90;;;;;;4980713;28;20448;-78
2022/04/06 00:12:59;;;;;;;9.60;5.63;;;9.70;99.90;;;;;;4977453;28;20984;-82
2022/04/06 00:15:25;;;;;;;9.48;7.35;;;9.70;99.90;;;;;;4975841;28;20435;-83
2022/04/06 00:17:51;;;;;;;7.63;6.20;;;9.70;99.90;;;;;;4973876;28;20209;-83
2022/04/06 00:20:16;;;;;;;11.53;6.03;;;9.70;99.90;;;;;;4968776;28;21297;-80
2022/04/06 00:22:42;;;;;;;5.53;4.30;;;9.70;99.90;;;;;;4980084;28;20184;-81
2022/04/06 00:25:08;;;;;;;9.30;6.00;;;9.70;99.90;;;;;;4972550;28;20189;-82
2022/04/06 00:27:34;;;;;;;9.45;5.68;;;9.70;99.90;;;;;;4981142;28;20234;-80
2022/04/06 00:30:00;;;;;;;13.80;6.07;;;9.70;99.90;;;;;;4973013;28;20617;-82
2022/04/06 00:32:26;;;;;;;8.17;5.60;;;9.70;99.90;;;;;;4950746;28;20289;-82
2022/04/06 00:37:36;;;;;;;8.65;6.22;;;9.70;99.90;;;;;;4979242;28;20260;-78
2022/04/06 00:40:02;;;;;;;6.60;5.93;;;9.70;99.90;;;;;;4955072;28;20262;-84
2022/04/06 00:42:28;;;;;;;5.82;5.25;;;9.70;99.90;;;;;;4975563;28;20449;-83
2022/04/06 00:44:53;;;;;;;8.00;6.47;;;10.00;99.90;;;;;;4958602;28;20203;-80
2022/04/06 00:47:19;;;;;;;10.60;6.30;;;9.70;99.90;;;;;;4972887;28;20238;-81
2022/04/06 00:49:44;;;;;;;7.70;5.90;;;9.60;99.90;;;;;;4978580;28;20178;-79
2022/04/06 00:52:10;;;;;;;11.13;7.63;;;9.60;99.90;;;;;;5000720;28;20163;-80
2022/04/06 00:54:37;;;;;;;7.70;5.87;;;9.60;99.90;;;;;;4984451;28;20200;-80
2022/04/06 00:57:03;;;;;;;7.05;6.35;;;9.60;99.90;;;;;;4955798;28;20631;-78
2022/04/06 00:59:30;;;;;;;13.47;6.50;;;9.60;99.90;;;;;;4984197;28;20213;-83
2022/04/06 01:01:57;;;;;;;8.85;6.32;;;9.60;99.90;;;;;;4950987;28;20521;-81
2022/04/06 01:04:23;;;;;;;7.10;6.05;;;9.60;99.90;;;;;;4977933;28;20194;-82
2022/04/06 01:06:50;;;;;;;8.87;6.57;;;9.70;99.90;;;;;;4960816;28;20214;-81
2022/04/06 01:09:16;;;;;;;11.05;7.15;;;9.70;99.90;;;;;;4985790;28;20183;-84
2022/04/06 01:11:45;;;;;;;8.70;7.15;;;9.60;99.90;;;;;;4961674;28;20191;-81
2022/04/06 01:14:11;;;;;;;7.80;6.25;;;9.70;99.90;;;;;;4983110;28;20187;-80
2022/04/06 01:16:37;;;;;;;7.90;5.50;;;9.70;99.90;;;;;;4977705;28;20206;-82
2022/04/06 01:19:03;;;;;;;7.75;5.20;;;9.70;99.90;;;;;;4968731;28;20812;-79
2022/04/06 01:21:29;;;;;;;7.40;5.55;;;9.70;99.90;;;;;;4978900;28;20180;-80
2022/04/06 01:23:55;;;;;;;8.33;5.23;;;9.70;99.90;;;;;;4979023;28;20182;-80
2022/04/06 01:26:20;;;;;;;8.90;5.70;;;9.60;99.90;;;;;;4961235;28;20292;-82
2022/04/06 01:28:46;;;;;;;9.27;6.10;;;9.70;99.90;;;;;;4979955;28;21132;-80
2022/04/06 01:31:12;;;;;;;7.27;6.43;;;9.70;99.90;;;;;;4979790;28;20261;-77
2022/04/06 01:33:37;;;;;;;8.07;5.60;;;9.70;99.90;;;;;;4978799;28;20656;-82
2022/04/06 01:36:03;;;;;;;7.63;5.90;;;9.70;99.90;;;;;;4963289;28;20207;-84
2022/04/06 01:38:29;;;;;;;6.57;5.43;;;9.70;99.90;;;;;;4972000;28;20182;-82
2022/04/06 01:40:58;;;;;;;11.77;6.80;;;9.70;99.90;;;;;;4978994;28;20245;-79
2022/04/06 01:43:23;;;;;;;6.35;5.22;;;9.60;99.90;;;;;;4979473;28;20190;-79
2022/04/06 01:45:49;;;;;;;7.13;5.43;;;9.70;99.90;;;;;;4976203;28;20194;-77
2022/04/06 01:48:15;;;;;;;7.40;5.80;;;9.70;99.90;;;;;;4971667;28;20194;-83
2022/04/06 01:53:26;;;;;;;6.95;5.32;;;9.70;99.90;;;;;;4979223;28;21970;-81
2022/04/06 01:55:53;;;;;;;7.28;4.85;;;9.70;99.90;;;;;;4958810;28;20423;-81
2022/04/06 01:58:18;;;;;;;9.68;5.72;;;9.70;99.90;;;;;;4980300;28;20198;-82
2022/04/06 02:00:44;;;;;;;8.87;6.20;;;9.80;99.90;;;;;;4978248;28;22160;-81
2022/04/06 02:03:09;;;;;;;7.23;5.43;;;9.80;99.90;;;;;;4989247;28;20183;-80
2022/04/06 02:05:35;;;;;;;6.63;5.40;;;9.60;99.90;;;;;;4962093;28;20183;-82
2022/04/06 02:08:01;;;;;;;13.43;8.43;;;9.80;99.90;;;;;;4976871;28;20178;-78
2022/04/06 02:10:28;;;;;;;9.52;6.30;;;9.80;99.90;;;;;;4985510;28;20183;-82
2022/04/06 02:12:58;;;;;;;7.45;4.97;;;9.70;99.90;;;;;;4980961;28;20685;-82
2022/04/06 02:15:24;;;;;;;6.60;5.15;;;9.80;99.90;;;;;;4998263;28;20229;-78
2022/04/06 02:17:50;;;;;;;7.20;4.53;;;9.70;99.90;;;;;;4988281;28;20215;-82
2022/04/06 02:20:17;;;;;;;7.20;5.90;;;9.70;99.90;;;;;;4951713;28;20572;-82
2022/04/06 02:22:43;;;;;;;5.68;4.18;;;9.70;99.90;;;;;;4980158;28;20473;-79
2022/04/06 02:25:09;;;;;;;5.10;4.43;;;9.80;99.90;;;;;;4989410;28;20175;-79
2022/04/06 02:27:46;;;;;;;4.97;4.45;;;9.80;99.90;;;;;;4984777;28;20241;-81
2022/04/06 02:30:12;;;;;;;6.82;4.15;;;9.80;99.90;;;;;;4959284;28;20668;-83
2022/04/06 02:32:38;;;;;;;5.67;4.80;;;9.80;99.90;;;;;;4977981;28;20190;-81
2022/04/06 02:35:04;;;;;;;5.10;4.60;;;9.90;99.90;;;;;;4949998;28;20800;-82
2022/04/06 02:37:29;;;;;;;5.90;3.97;;;9.80;99.90;;;;;;4964417;28;20305;-80
2022/04/06 02:39:55;;;;;;;7.47;4.73;;;9.80;99.90;;;;;;4994058;28;20229;-81
2022/04/06 02:42:20;;;;;;;12.33;4.90;;;9.80;99.90;;;;;;4995734;28;20247;-84
2022/04/06 02:44:46;;;;;;;5.30;4.30;;;9.80;99.90;;;;;;4996409;28;20249;-80
2022/04/06 02:47:11;;;;;;;7.00;4.50;;;9.80;99.90;;;;;;4971373;28;20292;-83
2022/04/06 02:49:37;;;;;;;6.47;4.97;;;9.70;99.90;;;;;;4950583;28;20661;-83
2022/04/06 02:52:02;;;;;;;6.57;3.50;;;9.70;99.90;;;;;;4951215;28;20194;-81
2022/04/06 02:54:28;;;;;;;5.97;4.03;;;9.70;99.90;;;;;;4981802;28;20179;-82
2022/04/06 02:56:53;;;;;;;6.33;4.63;;;9.70;99.90;;;;;;4978911;28;20457;-82
2022/04/06 02:59:19;;;;;;;7.03;5.10;;;9.70;99.90;;;;;;4961187;28;20856;-81
2022/04/06 03:01:44;;;;;;;10.00;4.57;;;9.70;99.90;;;;;;4974438;28;20179;-81
2022/04/06 03:04:10;;;;;;;5.30;3.63;;;9.80;99.90;;;;;;4973418;28;20182;-80
2022/04/06 03:06:37;;;;;;;5.40;4.23;;;9.80;99.90;;;;;;4978864;28;20687;-83
2022/04/06 03:09:02;;;;;;;4.68;4.15;;;9.80;99.90;;;;;;4985779;28;20211;-81
2022/04/06 03:11:28;;;;;;;5.03;4.50;;;9.80;99.90;;;;;;4979180;28;20278;-82
2022/04/06 03:13:54;;;;;;;6.20;4.47;;;9.80;99.90;;;;;;4975570;28;20585;-83
2022/04/06 03:16:19;;;;;;;6.10;4.73;;;9.80;99.90;;;;;;4951027;28;20209;-81
2022/04/06 03:18:45;;;;;;;6.80;5.20;;;9.80;99.90;;;;;;4965125;28;20183;-81
2022/04/06 03:21:11;;;;;;;5.50;4.18;;;9.80;99.90;;;;;;4975852;28;20214;-79
2022/04/06 03:23:37;;;;;;;6.97;4.20;;;9.80;99.90;;;;;;4957247;28;20206;-82
2022/04/06 03:26:02;;;;;;;7.13;4.60;;;9.70;99.90;;;;;;4964162;28;20528;-84
2022/04/06 03:28:28;;;;;;;6.33;3.93;;;9.80;99.90;;;;;;4980867;28;20199;-80
2022/04/06 03:30:53;;;;;;;4.97;4.47;;;9.80;99.90;;;;;;4960361;28;20187;-80
2022/04/06 03:33:19;;;;;;;5.50;4.30;;;9.80;99.90;;;;;;4991801;28;20187;-79
2022/04/06 03:35:45;;;;;;;6.23;4.27;;;9.80;99.90;;;;;;4986407;28;20183;-84
2022/04/06 03:38:10;;;;;;;5.20;4.10;;;9.80;99.90;;;;;;4959857;28;20194;-82
2022/04/06 03:40:36;;;;;;;6.10;4.73;;;9.80;99.90;;;;;;4992738;28;23747;-80
2022/04/06 03:43:01;;;;;;;9.33;3.90;;;9.80;99.90;;;;;;5011221;28;20175;-82
2022/04/06 03:45:27;;;;;;;5.80;3.83;;;9.80;99.90;;;;;;4991016;28;20549;-78
2022/04/06 03:47:53;;;;;;;7.23;4.40;;;9.90;99.90;;;;;;4985940;28;20203;-84
2022/04/06 03:50:18;;;;;;;5.47;3.87;;;9.80;99.90;;;;;;4992758;28;20753;-79
2022/04/06 03:52:44;;;;;;;4.90;4.20;;;9.80;99.90;;;;;;4975116;28;20763;-79
2022/04/06 03:55:10;;;;;;;6.00;4.60;;;9.80;99.90;;;;;;4989590;28;20178;-85
2022/04/06 03:57:36;;;;;;;5.78;3.97;;;9.80;99.90;;;;;;4967115;28;20214;-84
2022/04/06 04:00:04;;;;;;;5.18;3.67;;;9.80;99.90;;;;;;4992635;28;20281;-82
2022/04/06 04:02:30;;;;;;;5.28;4.60;;;9.90;99.90;;;;;;4984993;28;20255;-78
2022/04/06 04:04:55;;;;;;;4.63;4.10;;;9.80;99.90;;;;;;4984268;28;20256;-85
2022/04/06 04:07:21;;;;;;;4.77;3.60;;;9.90;99.90;;;;;;4983177;28;20498;-80
2022/04/06 04:09:49;;;;;;;6.43;4.80;;;9.90;99.90;;;;;;4982074;28;20187;-79
2022/04/06 04:12:15;;;;;;;4.47;4.07;;;9.90;99.90;;;;;;4955808;28;20179;-82
2022/04/06 04:14:40;;;;;;;7.18;4.57;;;9.80;99.90;;;;;;4981655;28;20256;-82
2022/04/06 04:17:06;;;;;;;4.53;4.07;;;9.80;99.90;;;;;;4975533;28;22114;-80
2022/04/06 04:19:32;;;;;;;6.57;4.13;;;9.80;99.90;;;;;;4958164;28;20700;-81
2022/04/06 04:21:57;;;;;;;4.33;3.17;;;9.90;99.90;;;;;;4981833;28;20442;-83
2022/04/06 04:24:23;;;;;;;5.53;4.50;;;9.80;99.90;;;;;;4981161;28;20191;-78
2022/04/06 04:26:49;;;;;;;5.33;4.03;;;9.80;99.90;;;;;;4976792;28;20229;-82
2022/04/06 04:29:15;;;;;;;6.50;3.77;;;9.80;99.90;;;;;;4988430;28;20237;-82
2022/04/06 04:31:41;;;;;;;4.30;3.20;;;9.70;99.90;;;;;;4971768;28;20183;-82
2022/04/06 04:34:07;;;;;;;5.13;3.97;;;9.70;99.90;;;;;;4975982;28;20676;-81
2022/04/06 04:36:33;;;;;;;5.25;3.95;;;9.70;99.90;;;;;;4965083;28;20305;-82
2022/04/06 04:38:58;;;;;;;4.27;3.67;;;9.80;99.90;;;;;;4951975;28;20260;-83
2022/04/06 04:41:24;;;;;;;6.20;4.17;;;9.70;99.90;;;;;;4981318;28;20273;-80
2022/04/06 04:43:53;;;;;;;5.80;4.50;;;9.80;99.90;;;;;;4973106;28;22520;-81
2022/04/06 04:46:19;;;;;;;14.93;5.10;;;9.80;99.90;;;;;;4970235;28;20206;-82
2022/04/06 04:48:45;;;;;;;5.18;4.15;;;9.70;99.90;;;;;;4956008;28;20210;-81
2022/04/06 04:51:14;;;;;;;5.67;4.73;;;9.70;99.90;;;;;;4976937;28;20219;-81
2022/04/06 04:53:41;;;;;;;7.10;3.90;;;9.60;99.90;;;;;;4969785;28;22222;-78
2022/04/06 04:56:07;;;;;;;6.15;5.13;;;9.50;99.90;;;;;;4961990;28;20736;-79
2022/04/06 04:58:33;;;;;;;7.80;4.37;;;9.50;99.90;;;;;;4956832;28;20845;-79
2022/04/06 05:00:58;;;;;;;6.10;4.53;;;9.50;99.90;;;;;;4986615;28;20214;-77
2022/04/06 05:03:24;;;;;;;5.63;4.70;;;9.50;99.90;;;;;;4961521;28;20194;-79
2022/04/06 05:05:53;;;;;;;5.13;4.20;;;9.50;99.90;;;;;;4973930;28;20259;-82
2022/04/06 05:08:19;;;;;;;4.75;3.97;;;9.50;99.90;;;;;;4999640;28;20803;-78
2022/04/06 05:10:45;;;;;;;6.82;4.90;;;9.50;99.90;;;;;;4963738;28;20269;-80
2022/04/06 05:13:13;;;;;;;6.27;4.73;;;9.50;99.90;;;;;;4970522;23;20644;-84
2022/04/06 05:15:39;;;;;;;5.93;3.95;;;9.40;99.90;;;;;;4952756;28;20750;-83
2022/04/06 05:18:05;;;;;;;6.20;3.93;;;9.40;99.90;;;;;;4946072;28;20688;-83
2022/04/06 05:20:31;;;;;;;4.47;3.85;;;9.40;99.90;;;;;;4951701;28;20220;-85
2022/04/06 05:22:56;;;;;;;4.23;3.77;;;9.40;99.90;;;;;;4927628;29;20260;-83
2022/04/06 05:25:22;;;;;;;4.10;3.70;;;9.40;99.90;;;;;;4940475;28;20183;-86
2022/04/06 05:27:50;;;;;;;5.90;4.50;;;9.50;99.90;;;;;;4938824;28;20191;-84
2022/04/06 05:30:17;;;;;;;6.55;4.03;;;9.50;99.90;;;;;;4945191;28;20506;-84
2022/04/06 05:32:45;;;;;;;6.90;4.22;;;9.50;99.90;;;;;;4936989;28;20799;-85
2022/04/06 05:35:11;;;;;;;6.40;3.75;;;9.50;99.90;;;;;;4942163;28;20547;-84
2022/04/06 05:37:41;;;;;;;5.93;3.92;;;9.50;99.90;;;;;;4942001;28;20184;-86
2022/04/06 05:40:08;;;;;;;5.45;4.50;;;9.50;99.90;;;;;;4944358;28;20775;-85
2022/04/06 05:42:34;;;;;;;5.13;4.68;;;9.40;99.90;;;;;;4945740;28;20279;-83
2022/04/06 05:45:00;;;;;;;7.30;4.73;;;9.40;99.90;;;;;;4945377;28;20180;-86
2022/04/06 05:47:26;;;;;;;6.20;3.90;;;;;;;;;;4947240;28;20684;-85
2022/04/06 05:49:52;;;;;;;14.32;4.45;;;9.40;99.90;;;;;;4942344;28;20745;-82
2022/04/06 05:52:18;;;;;;;9.77;4.87;;;9.40;99.90;;;;;;4945079;28;20223;-82
2022/04/06 05:54:43;;;;;;;10.00;4.57;;;9.40;99.90;;;;;;4943288;28;20225;-86
2022/04/06 05:57:09;;;;;;;8.90;4.73;;;9.40;99.90;;;;;;4946027;28;20443;-83
2022/04/06 05:59:36;;;;;;;7.67;3.97;;;9.40;99.90;;;;;;4943228;28;20297;-85
2022/04/06 06:02:03;;;;;;;3.88;3.42;;;9.50;99.90;;;;;;4942214;28;20259;-84
2022/04/06 06:04:28;;;;;;;6.15;4.45;;;9.50;99.90;;;;;;4927616;29;20235;-85
2022/04/06 06:06:54;;;;;;;6.50;4.03;;;9.50;99.90;;;;;;4944924;28;20189;-84
2022/04/06 06:09:19;;;;;;;5.60;4.40;;;9.50;99.90;;;;;;4944556;28;20195;-84
2022/04/06 06:11:44;;;;;;;7.13;4.90;;;9.60;99.90;;;;;;4944813;28;20303;-84
2022/04/06 06:14:10;;;;;;;7.30;4.30;;;9.50;99.90;;;;;;4939834;28;20746;-85
2022/04/06 06:16:35;;;;;;;7.33;4.93;;;9.60;99.90;;;;;;4942025;28;20612;-83
2022/04/06 06:19:01;;;;;;;7.80;4.57;;;9.60;99.90;;;;;;4923822;29;20852;-83
2022/04/06 06:21:31;;;;;;;8.20;5.07;;;9.60;99.90;;;;;;4938319;28;20208;-83
2022/04/06 06:24:00;;;;;;;6.03;4.88;;;9.80;99.90;;;;;;4941562;28;20263;-84
2022/04/06 06:26:25;;;;;;;4.55;3.78;;;9.90;99.90;;;;;;4943523;28;20243;-84
2022/04/06 06:28:51;;;;;;;8.57;4.50;;;9.90;99.90;;;;;;4946295;28;20188;-84
2022/04/06 06:31:16;;;;;;;6.80;4.37;;;9.90;99.90;;;;;;4944776;28;20214;-83
2022/04/06 06:33:42;;;;;;;6.00;5.07;;;9.90;99.90;;;;;;4948957;28;20172;-84
2022/04/06 06:36:07;;;;;;;5.57;4.27;;;10.00;99.90;;;;;;4943423;28;20306;-83
2022/04/06 06:38:33;;;;;;;4.77;4.00;;;10.10;99.90;;;;;;4943280;28;20257;-83
2022/04/06 06:40:59;;;;;;;4.57;3.93;;;10.20;99.90;;;;;;4944718;28;20825;-84
2022/04/06 06:43:24;;;;;;;6.90;3.97;;;10.40;99.90;;;;;;4929537;29;20719;-84
2022/04/06 06:45:50;;;;;;;4.90;3.60;;;10.70;99.90;;;;;;4946166;28;20187;-84
2022/04/06 06:48:15;;;;;;;4.73;4.00;;;11.00;99.90;;;;;;4944172;28;20173;-84
2022/04/06 06:50:41;;;;;;;3.80;2.90;;;11.60;99.90;;;;;;4947360;28;20563;-84
2022/04/06 06:53:06;;;;;;;3.47;3.13;;;12.00;99.90;;;;;;4945554;28;20283;-84
2022/04/06 06:55:32;;;;;;;8.07;3.90;;;12.20;99.90;;;;;;4926898;29;20197;-83
2022/04/06 06:57:57;;;;;;;5.80;3.20;;;12.70;99.90;;;;;;4931392;28;20184;-82
2022/04/06 07:00:23;;;;;;;4.03;3.27;;;14.30;99.90;;;;;;4944732;28;20226;-84
2022/04/06 07:02:49;;;;;;;3.30;2.87;;;14.80;99.90;;;;;;4940857;28;20189;-82
2022/04/06 07:05:15;;;;;;;2.50;2.30;;;14.10;99.90;;;;;;4946162;28;20189;-82
2022/04/06 07:07:53;;;;;;;3.00;2.30;;;13.60;99.90;;;;;;4933411;29;20180;-82
2022/04/06 07:10:21;;;;;;;4.35;2.50;;;12.60;99.90;;;;;;4923330;28;20278;-83
2022/04/06 07:12:46;;;;;;;6.32;2.63;;;12.60;99.90;;;;;;4931109;29;20267;-83
2022/04/06 07:15:12;;;;;;;2.97;2.00;;;12.70;99.90;;;;;;4946359;28;20200;-83
2022/04/06 07:17:38;;;;;;;3.17;2.40;;;12.40;99.90;;;;;;4928379;29;20189;-83
2022/04/06 07:20:05;;;;;;;2.70;1.70;;;12.00;99.90;;;;;;4948514;28;20777;-84
2022/04/06 07:22:30;;;;;;;3.47;2.70;;;12.10;99.90;;;;;;4932450;29;20204;-83
2022/04/06 07:24:56;;;;;;;3.43;2.50;;;12.00;99.90;;;;;;4947554;28;20180;-85
2022/04/06 07:27:21;;;;;;;3.17;2.50;;;11.80;99.90;;;;;;4928607;29;20172;-85
2022/04/06 07:29:47;;;;;;;2.73;2.03;;;11.90;99.90;;;;;;4929073;28;20275;-84
2022/04/06 07:32:12;;;;;;;3.07;1.80;;;12.00;99.90;;;;;;4942193;28;21966;-84
2022/04/06 07:34:38;;;;;;;4.30;2.90;;;12.20;99.90;;;;;;4944889;28;20185;-85
2022/04/06 07:37:04;;;;;;;3.17;2.00;;;12.00;99.90;;;;;;4937713;28;20235;-85
2022/04/06 07:39:30;;;;;;;2.30;1.97;;;12.40;99.90;;;;;;4935645;28;20543;-85
2022/04/06 07:41:58;;;;;;;2.00;1.53;;;12.60;99.90;;;;;;4922892;29;20260;-84
2022/04/06 07:44:24;;;;;;;4.20;2.20;;;12.90;99.90;;;;;;4936947;28;20184;-85
2022/04/06 07:46:50;;;;;;;2.90;2.10;;;12.50;99.90;;;;;;4936506;28;20184;-86
2022/04/06 07:49:19;;;;;;;3.53;2.75;;;11.70;99.90;;;;;;4939405;28;20432;-84
2022/04/06 07:51:45;;;;;;;5.82;3.70;;;11.50;99.90;;;;;;4938117;28;20223;-84
2022/04/06 07:54:11;;;;;;;2.80;1.75;;;11.50;99.90;;;;;;4937859;28;20192;-86
2022/04/06 07:56:38;;;;;;;2.57;2.20;;;11.30;99.90;;;;;;4923566;28;20185;-85
2022/04/06 07:59:03;;;;;;;4.80;2.38;;;11.10;99.90;;;;;;4923766;28;20499;-84
2022/04/06 08:01:29;;;;;;;2.30;2.00;;;11.20;99.90;;;;;;4943810;28;20208;-84
2022/04/06 08:03:54;;;;;;;3.70;2.23;;;11.20;99.90;;;;;;4947216;28;20183;-84
2022/04/06 08:06:22;;;;;;;7.93;2.40;;;11.30;99.90;;;;;;4928594;28;20183;-84
2022/04/06 08:08:51;;;;;;;2.22;1.60;;;11.40;99.90;;;;;;4929463;29;20191;-85
2022/04/06 08:11:17;;;;;;;3.80;2.30;;;11.60;99.90;;;;;;4946365;28;20204;-85
2022/04/06 08:13:43;;;;;;;6.03;2.10;;;11.60;99.90;;;;;;4939231;28;20196;-85
2022/04/06 08:16:08;;;;;;;3.67;2.37;;;11.60;99.90;;;;;;4925681;29;20454;-85
2022/04/06 08:18:34;;;;;;;2.93;2.20;;;11.50;99.90;;;;;;4923952;28;20192;-86
2022/04/06 08:20:59;;;;;;;2.27;2.00;;;11.70;99.90;;;;;;4938347;28;20371;-85
2022/04/06 08:23:25;;;;;;;4.97;2.37;;;11.80;99.90;;;;;;4940702;28;20860;-85
2022/04/06 08:25:52;;;;;;;4.60;2.00;;;11.60;99.90;;;;;;4941289;28;20208;-85
2022/04/06 08:28:19;;;;;;;3.42;2.33;;;11.70;99.90;;;;;;4932987;29;20180;-85
2022/04/06 08:30:47;;;;;;;3.15;2.00;;;11.90;99.90;;;;;;4940823;28;20204;-84
2022/04/06 08:33:13;;;;;;;3.70;2.25;;;11.70;99.90;;;;;;4923035;29;20301;-83
2022/04/06 08:35:39;;;;;;;2.75;2.10;;;11.40;99.90;;;;;;4939687;28;20608;-85
2022/04/06 08:38:05;;;;;;;2.17;1.88;;;11.30;99.90;;;;;;4909431;29;20734;-85
2022/04/06 08:40:33;;;;;;;2.97;2.20;;;11.40;99.90;;;;;;4934568;28;20220;-86
2022/04/06 08:43:00;;;;;;;3.22;2.17;;;11.50;99.90;;;;;;4938682;28;20364;-85
2022/04/06 08:45:28;;;;;;;2.70;2.30;;;11.40;99.90;;;;;;4913914;29;20189;-86
2022/04/06 08:47:54;;;;;;;3.17;2.47;;;11.50;99.90;;;;;;4941144;28;20177;-85
2022/04/06 08:50:20;;;;;;;3.22;2.10;;;11.70;99.90;;;;;;4942374;28;20212;-85
2022/04/06 08:52:47;;;;;;;3.40;2.72;;;11.50;99.90;;;;;;4944402;28;20187;-86
2022/04/06 08:55:13;;;;;;;3.20;2.35;;;11.50;99.90;;;;;;4947068;28;20189;-84
2022/04/06 08:57:41;;;;;;;4.00;2.70;;;11.70;99.90;;;;;;4939591;28;20183;-86
2022/04/06 09:00:07;;;;;;;3.33;2.30;;;12.00;99.90;;;;;;4922758;28;20302;-85
2022/04/06 09:02:33;;;;;;;2.58;1.88;;;12.10;99.90;;;;;;4939453;28;20598;-83
2022/04/06 09:05:02;;;;;;;2.70;2.10;;;12.30;99.90;;;;;;4947154;28;20188;-82
2022/04/06 09:07:28;;;;;;;6.32;2.20;;;12.50;99.90;;;;;;4929284;28;20188;-83
2022/04/06 09:09:55;;;;;;;3.93;2.43;;;12.30;99.90;;;;;;4948926;28;20193;-84
2022/04/06 09:12:25;;;;;;;2.38;1.73;;;12.40;99.90;;;;;;4949940;29;20805;-84
2022/04/06 09:15:10;;;;;;;2.17;1.88;;;12.60;99.90;;;;;;4941264;28;20184;-85
2022/04/06 09:17:47;;;;;;;1.98;1.60;;;12.30;99.90;;;;;;4935555;28;21028;-84
2022/04/06 09:20:15;;;;;;;11.27;1.80;;;11.80;99.90;;;;;;4943139;28;20226;-84
2022/04/06 09:22:41;;;;;;;2.70;2.05;;;11.80;99.90;;;;;;4941796;28;20596;-85
2022/04/06 09:25:08;;;;;;;3.38;2.45;;;12.00;99.90;;;;;;4945296;28;20188;-84
2022/04/06 09:27:34;;;;;;;2.83;2.47;;;12.20;99.90;;;;;;4928299;29;20215;-84
2022/04/06 09:30:03;;;;;;;3.00;2.13;;;12.30;99.90;;;;;;4929873;29;20220;-84
2022/04/06 09:32:29;;;;;;;3.35;1.98;;;12.30;99.90;;;;;;4951779;28;20554;-85
2022/04/06 09:34:56;;;;;;;2.63;2.08;;;12.00;99.90;;;;;;4938803;28;20888;-84
2022/04/06 09:37:27;;;;;;;2.00;1.70;;;12.10;99.90;;;;;;4940353;28;20191;-84
2022/04/06 09:39:55;;;;;;;2.15;1.80;;;12.30;99.90;;;;;;4941508;28;20201;-82
2022/04/06 09:42:24;;;;;;;2.22;1.90;;;12.50;99.90;;;;;;4937920;28;20184;-83
2022/04/06 09:47:39;;;;;;;2.58;1.75;;;12.40;99.90;;;;;;4942939;28;20195;-85
2022/04/06 09:50:15;;;;;;;1.50;1.40;;;12.50;99.90;;;;;;4939851;28;20557;-85
2022/04/06 09:52:42;;;;;;;2.80;1.42;;;12.60;99.90;;;;;;4939331;28;20188;-83
2022/04/06 09:55:11;;;;;;;2.00;1.63;;;13.10;99.90;;;;;;4940075;28;20188;-85
2022/04/06 09:57:47;;;;;;;1.77;1.50;;;12.90;99.90;;;;;;4939933;28;21038;-85
2022/04/06 10:00:18;;;;;;;3.28;1.48;;;12.80;99.90;;;;;;4922960;28;20815;-85
2022/04/06 10:02:50;;;;;;;3.13;1.83;;;13.00;99.90;;;;;;4918000;28;20212;-85
2022/04/06 10:05:19;;;;;;;3.13;1.85;;;13.10;99.90;;;;;;4945717;28;20453;-84
2022/04/06 10:07:45;;;;;;;1.63;1.30;;;13.10;99.90;;;;;;4940511;28;20628;-84
2022/04/06 10:10:12;;;;;;;3.80;1.40;;;13.00;99.90;;;;;;4923261;29;20907;-84
2022/04/06 10:12:38;;;;;;;1.73;1.33;;;12.90;99.90;;;;;;4938567;28;20485;-85
2022/04/06 10:15:05;;;;;;;2.50;1.05;;;12.90;99.90;;;;;;4939569;28;20687;-84
2022/04/06 10:17:31;;;;;;;2.45;1.73;;;13.00;99.90;;;;;;4933728;28;20951;-84
2022/04/06 10:20:06;;;;;;;2.75;1.35;;;12.90;99.90;;;;;;4931821;28;20720;-85
2022/04/06 10:22:39;;;;;;;3.90;1.40;;;12.90;99.90;;;;;;4944058;28;20191;-84
2022/04/06 10:25:21;;;;;;;4.70;1.73;;;12.90;99.90;;;;;;4942051;28;21427;-84
2022/04/06 10:27:53;;;;;;;2.10;1.73;;;12.90;99.90;;;;;;4927791;29;20481;-84
2022/04/06 10:30:22;;;;;;;2.60;1.70;;;13.00;99.90;;;;;;4965130;23;20319;-80
2022/04/06 10:32:49;;;;;;;1.70;1.50;;;13.10;99.90;;;;;;5016785;28;20201;-81
2022/04/06 10:35:27;;;;;;;2.60;1.80;;;13.20;99.90;;;;;;4999059;28;20705;-79
2022/04/06 10:37:56;;;;;;;7.03;3.50;;;13.80;99.90;;;;;;4998802;28;20546;-81
2022/04/06 10:40:40;;;;;;;2.97;1.93;;;14.10;99.90;;;;;;5017242;28;20449;-78
2022/04/06 10:43:34;;;;;;;3.20;2.17;;;13.50;99.90;;;;;;5017505;28;20397;-80
2022/04/06 10:46:00;;;;;;;1.92;1.77;;;13.80;99.90;;;;;;5017058;28;20915;-79
2022/04/06 10:48:26;;;;;;;3.30;1.60;;;13.20;99.90;;;;;;4999283;28;20179;-79
2022/04/06 10:50:52;;;;;;;2.40;1.73;;;13.30;99.90;;;;;;5016946;28;20440;-81
2022/04/06 10:53:21;;;;;;;3.10;2.00;;;13.90;99.90;;;;;;5016424;28;20433;-80
2022/04/06 10:56:06;;;;;;;3.13;1.60;;;14.70;99.90;;;;;;4999564;28;20499;-79
2022/04/06 10:58:56;;;;;;;2.40;1.60;;;15.30;99.90;;;;;;5017418;28;20397;-81
2022/04/06 11:01:29;;;;;;;2.60;1.60;;;15.30;99.90;;;;;;5016034;28;20547;-79
2022/04/06 11:04:01;;;;;;;8.17;1.13;;;15.70;99.90;;;;;;5017309;28;20391;-80
2022/04/06 11:06:44;;;;;;;3.77;1.10;;;14.80;99.90;;;;;;5017153;28;20393;-78
2022/04/06 11:12:12;;;;;;;1.63;1.30;;;15.40;99.90;;;;;;5016495;28;20520;-79
2022/04/06 11:14:38;;;;;;;1.93;1.40;;;14.60;99.90;;;;;;5014984;28;20812;-80
2022/04/06 11:17:34;;;;;;;1.50;1.20;;;14.40;99.90;;;;;;5015158;28;20417;-77
2022/04/06 11:20:13;;;;;;;1.33;1.17;;;14.70;99.90;;;;;;5015877;28;20516;-79
2022/04/06 11:22:43;;;;;;;1.20;1.07;;;14.80;99.90;;;;;;5015511;28;20409;-77
2022/04/06 11:25:16;;;;;;;2.07;1.50;;;14.50;99.90;;;;;;4997520;28;20487;-80
2022/04/06 11:27:46;;;;;;;1.93;1.33;;;14.90;99.90;;;;;;5016484;28;20916;-79
2022/04/06 11:30:17;;;;;;;4.30;1.67;;;14.00;99.90;;;;;;5015903;28;20824;-80
2022/04/06 11:32:54;;;;;;;2.93;1.20;;;14.00;99.90;;;;;;5015487;28;20413;-80
2022/04/06 11:35:20;;;;;;;1.53;1.40;;;13.70;99.90;;;;;;5014915;28;20401;-79
2022/04/06 11:37:48;;;;;;;1.50;1.40;;;13.80;99.90;;;;;;5015221;28;20410;-79
2022/04/06 11:40:16;;;;;;;1.67;1.13;;;14.00;99.90;;;;;;5015278;28;21098;-78
2022/04/06 11:42:49;;;;;;;1.67;1.20;;;14.40;99.90;;;;;;5016100;28;20394;-78
2022/04/06 11:45:20;;;;;;;1.87;1.03;;;14.70;99.90;;;;;;5016204;28;20464;-79
2022/04/06 11:47:55;;;;;;;3.13;1.90;;;14.50;99.90;;;;;;5015721;28;20421;-79
2022/04/06 11:50:22;;;;;;;1.43;1.10;;;14.30;99.90;;;;;;5015366;28;20413;-78
2022/04/06 11:52:48;;;;;;;1.47;1.33;;;14.00;99.90;;;;;;4998046;28;20910;-80
2022/04/06 11:55:14;;;;;;;1.50;1.20;;;14.10;99.90;;;;;;4996487;28;20405;-80
2022/04/06 11:57:45;;;;;;;1.80;1.20;;;14.10;99.90;;;;;;5015130;28;20463;-81
2022/04/06 12:00:13;;;;;;;1.17;1.00;;;13.90;99.90;;;;;;5014423;28;20664;-80
2022/04/06 12:02:55;;;;;;;2.07;1.43;;;14.10;99.90;;;;;;5014626;28;20405;-79
2022/04/06 12:05:23;;;;;;;1.80;1.30;;;14.10;99.90;;;;;;5015339;28;20641;-78
2022/04/06 12:08:15;;;;;;;2.30;1.63;;;13.90;99.90;;;;;;4998496;28;20511;-80
2022/04/06 12:10:51;;;;;;;2.13;1.80;;;14.80;99.90;;;;;;5015357;28;20441;-79
2022/04/06 12:13:18;;;;;;;2.20;1.50;;;15.60;99.90;;;;;;5015597;28;20973;-77
2022/04/06 12:15:44;;;;;;;2.80;1.30;;;15.80;99.90;;;;;;5015437;28;20430;-80
2022/04/06 12:18:11;;;;;;;1.30;1.17;;;15.70;99.90;;;;;;5015342;28;20404;-80
2022/04/06 12:20:37;;;;;;;2.70;1.50;;;15.30;99.90;;;;;;4996075;28;20535;-79
2022/04/06 12:23:04;;;;;;;1.33;1.20;;;15.20;99.90;;;;;;4998625;28;20512;-78
2022/04/06 12:25:33;;;;;;;1.87;1.50;;;15.40;99.90;;;;;;5014849;28;20700;-80
2022/04/06 12:28:19;;;;;;;1.30;1.13;;;14.70;99.90;;;;;;5014540;28;20501;-78
2022/04/06 12:30:55;;;;;;;1.70;1.43;;;15.10;99.90;;;;;;5014607;28;20841;-78
2022/04/06 12:33:39;;;;;;;1.33;1.20;;;15.10;99.90;;;;;;5014028;28;20444;-79
2022/04/06 12:36:11;;;;;;;1.47;1.37;;;15.70;99.90;;;;;;4997382;28;20445;-79
2022/04/06 12:38:38;;;;;;;1.77;1.30;;;15.30;99.90;;;;;;5015689;28;20405;-79
2022/04/06 12:41:11;;;;;;;1.70;1.27;;;14.80;99.90;;;;;;4996181;28;20469;-78
2022/04/06 12:43:38;;;;;;;1.70;1.40;;;14.90;99.90;;;;;;5014864;28;20408;-80
2022/04/06 12:46:04;;;;;;;2.97;1.70;;;15.60;99.90;;;;;;4997226;28;20788;-79
2022/04/06 12:48:30;;;;;;;2.03;1.63;;;15.80;99.90;;;;;;5014135;28;20405;-80
2022/04/06 12:50:56;;;;;;;2.00;1.20;;;16.00;99.90;;;;;;5014493;28;20763;-79
2022/04/06 12:53:21;;;;;;;2.80;1.83;;;15.30;99.90;;;;;;5014278;28;20222;-79
2022/04/06 12:56:07;;;;;;;1.73;1.47;;;14.80;99.90;;;;;;5014452;28;20452;-82
2022/04/06 12:58:32;;;;;;;1.70;1.43;;;15.50;99.90;;;;;;5013727;28;20194;-79
2022/04/06 13:00:58;;;;;;;2.00;1.30;;;15.60;99.90;;;;;;5014597;28;21073;-79
2022/04/06 13:03:25;;;;;;;1.20;1.10;;;15.10;99.90;;;;;;4995780;28;20178;-81
2022/04/06 13:05:51;;;;;;;3.87;1.23;;;15.20;99.90;;;;;;5014231;28;20400;-78